sensor_id;sensor_type;location;lat;lon;timestamp;P1;durP1;ratioP1;P2;durP2;ratioP2
50759;SDS011;36733;48.442;-4.470;2023-07-09T08:57:07;26.35;;;3.05;;
50759;SDS011;36733;48.442;-4.470;2023-07-09T08:59:40;23.65;;;3.88;;
50759;SDS011;36733;48.442;-4.470;2023-07-09T09:02:06;30.10;;;3.63;;
50759;SDS011;36733;48.442;-4.470;2023-07-09T09:04:50;30.42;;;3.55;;
50759;SDS011;36733;48.442;-4.470;2023-07-09T09:09:57;14.30;;;2.88;;
50759;SDS011;36733;48.442;-4.470;2023-07-09T09:12:27;15.95;;;3.28;;
50759;SDS011;36733;48.442;-4.470;2023-07-09T09:15:19;18.02;;;3.75;;
50759;SDS011;36733;48.442;-4.470;2023-07-09T09:17:45;17.65;;;2.95;;
50759;SDS011;36733;48.442;-4.470;2023-07-09T09:20:22;23.77;;;3.78;;
50759;SDS011;36733;48.442;-4.470;2023-07-09T09:25:31;18.48;;;3.17;;
50759;SDS011;36733;48.442;-4.470;2023-07-09T09:28:00;21.80;;;2.95;;
50759;SDS011;36733;48.442;-4.470;2023-07-09T09:30:26;20.92;;;3.13;;
50759;SDS011;36733;48.442;-4.470;2023-07-09T09:32:56;19.35;;;3.30;;
50759;SDS011;36733;48.442;-4.470;2023-07-09T09:35:33;14.05;;;3.38;;
50759;SDS011;36733;48.442;-4.470;2023-07-09T09:38:00;22.30;;;3.22;;
50759;SDS011;36733;48.442;-4.470;2023-07-09T09:40:27;19.33;;;3.08;;
50759;SDS011;36733;48.442;-4.470;2023-07-09T09:42:56;18.30;;;3.05;;
50759;SDS011;36733;48.442;-4.470;2023-07-09T09:45:28;20.80;;;3.28;;
50759;SDS011;36733;48.442;-4.470;2023-07-09T09:48:00;17.65;;;3.20;;
50759;SDS011;36733;48.442;-4.470;2023-07-09T09:50:27;16.73;;;2.83;;
50759;SDS011;36733;48.442;-4.470;2023-07-09T09:52:56;19.42;;;3.45;;
50759;SDS011;36733;48.442;-4.470;2023-07-09T09:55:28;19.53;;;3.10;;
50759;SDS011;36733;48.442;-4.470;2023-07-09T09:57:55;19.00;;;3.17;;
50759;SDS011;36733;48.442;-4.470;2023-07-09T10:00:22;20.77;;;3.42;;
50759;SDS011;36733;48.442;-4.470;2023-07-09T10:02:50;15.70;;;2.97;;
50759;SDS011;36733;48.442;-4.470;2023-07-09T10:05:16;19.10;;;3.40;;
50759;SDS011;36733;48.442;-4.470;2023-07-09T10:07:44;13.93;;;2.78;;
50759;SDS011;36733;48.442;-4.470;2023-07-09T10:10:17;17.13;;;3.53;;
50759;SDS011;36733;48.442;-4.470;2023-07-09T10:12:49;19.77;;;3.88;;
50759;SDS011;36733;48.442;-4.470;2023-07-09T10:18:18;20.88;;;3.20;;
50759;SDS011;36733;48.442;-4.470;2023-07-09T10:21:13;22.60;;;3.42;;
50759;SDS011;36733;48.442;-4.470;2023-07-09T10:34:32;13.10;;;2.90;;
50759;SDS011;36733;48.442;-4.470;2023-07-09T10:39:44;17.10;;;3.30;;
50759;SDS011;36733;48.442;-4.470;2023-07-09T10:42:29;18.55;;;3.15;;
50759;SDS011;36733;48.442;-4.470;2023-07-09T10:45:01;17.63;;;3.45;;
50759;SDS011;36733;48.442;-4.470;2023-07-09T10:51:19;17.15;;;3.72;;
50759;SDS011;36733;48.442;-4.470;2023-07-09T10:53:52;14.20;;;2.75;;
50759;SDS011;36733;48.442;-4.470;2023-07-09T10:56:26;9.65;;;3.15;;
50759;SDS011;36733;48.442;-4.470;2023-07-09T11:01:32;12.60;;;3.10;;
50759;SDS011;36733;48.442;-4.470;2023-07-09T11:04:02;15.88;;;3.38;;
50759;SDS011;36733;48.442;-4.470;2023-07-09T11:06:35;11.77;;;3.03;;
50759;SDS011;36733;48.442;-4.470;2023-07-09T11:09:05;9.82;;;2.80;;
50759;SDS011;36733;48.442;-4.470;2023-07-09T11:11:42;11.45;;;2.92;;
50759;SDS011;36733;48.442;-4.470;2023-07-09T11:14:14;8.52;;;2.60;;
50759;SDS011;36733;48.442;-4.470;2023-07-09T11:16:54;13.23;;;3.25;;
50759;SDS011;36733;48.442;-4.470;2023-07-09T11:19:20;10.93;;;2.83;;
50759;SDS011;36733;48.442;-4.470;2023-07-09T11:24:31;13.25;;;2.70;;
50759;SDS011;36733;48.442;-4.470;2023-07-09T11:26:58;12.60;;;3.08;;
50759;SDS011;36733;48.442;-4.470;2023-07-09T11:29:26;11.45;;;3.30;;
50759;SDS011;36733;48.442;-4.470;2023-07-09T11:31:52;9.98;;;2.92;;
50759;SDS011;36733;48.442;-4.470;2023-07-09T11:34:18;11.65;;;3.22;;
50759;SDS011;36733;48.442;-4.470;2023-07-09T11:36:57;8.95;;;2.92;;
50759;SDS011;36733;48.442;-4.470;2023-07-09T11:39:39;13.68;;;3.35;;
50759;SDS011;36733;48.442;-4.470;2023-07-09T11:45:13;9.85;;;3.20;;
50759;SDS011;36733;48.442;-4.470;2023-07-09T11:50:41;9.98;;;2.92;;
50759;SDS011;36733;48.442;-4.470;2023-07-09T11:55:56;10.45;;;3.45;;
50759;SDS011;36733;48.442;-4.470;2023-07-09T11:58:22;10.35;;;3.15;;
50759;SDS011;36733;48.442;-4.470;2023-07-09T12:00:48;8.93;;;3.25;;
50759;SDS011;36733;48.442;-4.470;2023-07-09T12:03:17;8.63;;;3.20;;
50759;SDS011;36733;48.442;-4.470;2023-07-09T12:05:51;9.77;;;3.60;;
50759;SDS011;36733;48.442;-4.470;2023-07-09T12:08:23;13.32;;;3.45;;
50759;SDS011;36733;48.442;-4.470;2023-07-09T12:10:52;11.02;;;2.90;;
50759;SDS011;36733;48.442;-4.470;2023-07-09T12:13:18;9.50;;;3.20;;
50759;SDS011;36733;48.442;-4.470;2023-07-09T12:15:43;8.23;;;3.30;;
50759;SDS011;36733;48.442;-4.470;2023-07-09T12:18:10;9.05;;;2.50;;
50759;SDS011;36733;48.442;-4.470;2023-07-09T12:20:40;12.10;;;2.67;;
50759;SDS011;36733;48.442;-4.470;2023-07-09T12:23:48;8.63;;;2.80;;
50759;SDS011;36733;48.442;-4.470;2023-07-09T12:25:58;7.53;;;2.80;;
50759;SDS011;36733;48.442;-4.470;2023-07-09T12:28:26;8.60;;;2.85;;
50759;SDS011;36733;48.442;-4.470;2023-07-09T12:30:52;8.95;;;2.97;;
50759;SDS011;36733;48.442;-4.470;2023-07-09T12:33:19;13.35;;;3.47;;
50759;SDS011;36733;48.442;-4.470;2023-07-09T12:35:50;8.50;;;3.20;;
50759;SDS011;36733;48.442;-4.470;2023-07-09T12:38:25;6.25;;;2.25;;
50759;SDS011;36733;48.442;-4.470;2023-07-09T12:40:51;12.48;;;3.22;;
50759;SDS011;36733;48.442;-4.470;2023-07-09T12:43:19;6.95;;;2.90;;
50759;SDS011;36733;48.442;-4.470;2023-07-09T12:45:50;10.20;;;2.95;;
50759;SDS011;36733;48.442;-4.470;2023-07-09T12:48:16;8.60;;;2.50;;
50759;SDS011;36733;48.442;-4.470;2023-07-09T12:50:41;10.73;;;2.90;;
50759;SDS011;36733;48.442;-4.470;2023-07-09T12:53:16;7.22;;;2.75;;
50759;SDS011;36733;48.442;-4.470;2023-07-09T12:55:44;8.77;;;2.78;;
50759;SDS011;36733;48.442;-4.470;2023-07-09T12:58:16;7.88;;;2.03;;
50759;SDS011;36733;48.442;-4.470;2023-07-09T13:00:47;5.30;;;1.95;;
50759;SDS011;36733;48.442;-4.470;2023-07-09T13:03:16;10.85;;;2.92;;
50759;SDS011;36733;48.442;-4.470;2023-07-09T13:05:52;8.15;;;2.55;;
50759;SDS011;36733;48.442;-4.470;2023-07-09T13:08:25;8.68;;;2.40;;
50759;SDS011;36733;48.442;-4.470;2023-07-09T13:10:52;6.75;;;2.30;;
50759;SDS011;36733;48.442;-4.470;2023-07-09T13:13:20;9.57;;;2.53;;
50759;SDS011;36733;48.442;-4.470;2023-07-09T13:15:56;10.63;;;2.65;;
50759;SDS011;36733;48.442;-4.470;2023-07-09T13:18:24;10.95;;;2.60;;
50759;SDS011;36733;48.442;-4.470;2023-07-09T13:20:50;10.40;;;2.70;;
50759;SDS011;36733;48.442;-4.470;2023-07-09T13:23:24;8.93;;;2.25;;
50759;SDS011;36733;48.442;-4.470;2023-07-09T13:25:51;9.60;;;2.50;;
50759;SDS011;36733;48.442;-4.470;2023-07-09T13:28:29;11.48;;;2.67;;
50759;SDS011;36733;48.442;-4.470;2023-07-09T13:33:44;11.52;;;2.33;;
50759;SDS011;36733;48.442;-4.470;2023-07-09T13:36:18;15.77;;;3.40;;
50759;SDS011;36733;48.442;-4.470;2023-07-09T13:41:10;14.77;;;3.45;;
50759;SDS011;36733;48.442;-4.470;2023-07-09T13:43:42;14.38;;;3.22;;
50759;SDS011;36733;48.442;-4.470;2023-07-09T13:46:09;12.23;;;3.05;;
50759;SDS011;36733;48.442;-4.470;2023-07-09T13:48:36;10.80;;;2.95;;
50759;SDS011;36733;48.442;-4.470;2023-07-09T13:51:05;9.57;;;2.63;;
50759;SDS011;36733;48.442;-4.470;2023-07-09T13:53:45;11.85;;;2.30;;
50759;SDS011;36733;48.442;-4.470;2023-07-09T13:56:11;8.32;;;2.10;;
50759;SDS011;36733;48.442;-4.470;2023-07-09T13:58:37;6.25;;;2.40;;
50759;SDS011;36733;48.442;-4.470;2023-07-09T14:01:09;11.20;;;2.53;;
50759;SDS011;36733;48.442;-4.470;2023-07-09T14:03:37;9.40;;;2.25;;
50759;SDS011;36733;48.442;-4.470;2023-07-09T14:06:02;9.85;;;2.15;;
50759;SDS011;36733;48.442;-4.470;2023-07-09T14:08:28;12.75;;;2.67;;
50759;SDS011;36733;48.442;-4.470;2023-07-09T14:10:53;10.75;;;2.47;;
50759;SDS011;36733;48.442;-4.470;2023-07-09T14:13:21;6.90;;;2.38;;
50759;SDS011;36733;48.442;-4.470;2023-07-09T14:15:48;10.05;;;2.15;;
50759;SDS011;36733;48.442;-4.470;2023-07-09T14:18:21;15.07;;;2.42;;
50759;SDS011;36733;48.442;-4.470;2023-07-09T14:20:47;8.50;;;2.13;;
50759;SDS011;36733;48.442;-4.470;2023-07-09T14:23:13;10.13;;;2.15;;
50759;SDS011;36733;48.442;-4.470;2023-07-09T14:25:40;7.18;;;2.33;;
50759;SDS011;36733;48.442;-4.470;2023-07-09T14:28:16;6.70;;;2.00;;
50759;SDS011;36733;48.442;-4.470;2023-07-09T14:30:43;11.48;;;2.38;;
50759;SDS011;36733;48.442;-4.470;2023-07-09T14:33:17;8.15;;;2.70;;
50759;SDS011;36733;48.442;-4.470;2023-07-09T14:35:44;7.05;;;2.00;;
50759;SDS011;36733;48.442;-4.470;2023-07-09T14:38:31;16.40;;;2.45;;
50759;SDS011;36733;48.442;-4.470;2023-07-09T14:40:56;8.30;;;2.17;;
50759;SDS011;36733;48.442;-4.470;2023-07-09T14:43:24;9.20;;;2.28;;
50759;SDS011;36733;48.442;-4.470;2023-07-09T14:48:17;6.20;;;1.88;;
50759;SDS011;36733;48.442;-4.470;2023-07-09T14:50:43;8.57;;;2.15;;
50759;SDS011;36733;48.442;-4.470;2023-07-09T14:55:38;5.57;;;1.73;;
50759;SDS011;36733;48.442;-4.470;2023-07-09T15:00:33;15.98;;;2.45;;
50759;SDS011;36733;48.442;-4.470;2023-07-09T15:02:59;10.95;;;2.00;;
50759;SDS011;36733;48.442;-4.470;2023-07-09T15:05:24;9.15;;;2.35;;
50759;SDS011;36733;48.442;-4.470;2023-07-09T15:07:51;10.20;;;2.17;;
50759;SDS011;36733;48.442;-4.470;2023-07-09T15:10:17;13.35;;;2.35;;
50759;SDS011;36733;48.442;-4.470;2023-07-09T15:12:45;9.43;;;2.13;;
50759;SDS011;36733;48.442;-4.470;2023-07-09T15:15:13;11.48;;;2.00;;
50759;SDS011;36733;48.442;-4.470;2023-07-09T15:17:41;9.23;;;2.05;;
50759;SDS011;36733;48.442;-4.470;2023-07-09T15:20:41;15.25;;;2.80;;
50759;SDS011;36733;48.442;-4.470;2023-07-09T15:22:58;9.13;;;2.38;;
50759;SDS011;36733;48.442;-4.470;2023-07-09T15:27:51;7.65;;;1.70;;
50759;SDS011;36733;48.442;-4.470;2023-07-09T15:30:18;7.70;;;1.75;;
50759;SDS011;36733;48.442;-4.470;2023-07-09T15:32:46;8.70;;;2.13;;
50759;SDS011;36733;48.442;-4.470;2023-07-09T15:35:12;11.23;;;2.35;;
50759;SDS011;36733;48.442;-4.470;2023-07-09T15:37:38;8.30;;;1.67;;
50759;SDS011;36733;48.442;-4.470;2023-07-09T15:40:04;8.70;;;2.10;;
50759;SDS011;36733;48.442;-4.470;2023-07-09T15:42:43;10.25;;;2.50;;
50759;SDS011;36733;48.442;-4.470;2023-07-09T15:45:12;13.13;;;2.13;;
50759;SDS011;36733;48.442;-4.470;2023-07-09T15:47:39;11.70;;;1.92;;
50759;SDS011;36733;48.442;-4.470;2023-07-09T15:50:21;11.15;;;2.03;;
50759;SDS011;36733;48.442;-4.470;2023-07-09T15:52:55;13.07;;;2.50;;
50759;SDS011;36733;48.442;-4.470;2023-07-09T15:55:22;12.57;;;2.40;;
50759;SDS011;36733;48.442;-4.470;2023-07-09T15:57:49;11.95;;;2.10;;
50759;SDS011;36733;48.442;-4.470;2023-07-09T16:02:49;13.07;;;2.40;;
50759;SDS011;36733;48.442;-4.470;2023-07-09T16:05:24;15.30;;;2.38;;
50759;SDS011;36733;48.442;-4.470;2023-07-09T16:07:51;7.97;;;1.60;;
50759;SDS011;36733;48.442;-4.470;2023-07-09T16:10:18;12.30;;;2.45;;
50759;SDS011;36733;48.442;-4.470;2023-07-09T16:12:45;11.82;;;2.28;;
50759;SDS011;36733;48.442;-4.470;2023-07-09T16:15:12;10.40;;;1.88;;
50759;SDS011;36733;48.442;-4.470;2023-07-09T16:17:39;8.77;;;1.83;;
50759;SDS011;36733;48.442;-4.470;2023-07-09T16:20:07;11.98;;;2.10;;
50759;SDS011;36733;48.442;-4.470;2023-07-09T16:22:35;13.10;;;2.20;;
50759;SDS011;36733;48.442;-4.470;2023-07-09T16:25:12;11.52;;;2.03;;
50759;SDS011;36733;48.442;-4.470;2023-07-09T16:27:38;11.27;;;2.28;;
50759;SDS011;36733;48.442;-4.470;2023-07-09T16:30:14;15.47;;;2.40;;
50759;SDS011;36733;48.442;-4.470;2023-07-09T16:32:40;6.05;;;1.27;;
50759;SDS011;36733;48.442;-4.470;2023-07-09T16:35:07;6.40;;;2.10;;
50759;SDS011;36733;48.442;-4.470;2023-07-09T16:37:40;14.32;;;2.25;;
50759;SDS011;36733;48.442;-4.470;2023-07-09T16:40:13;8.88;;;1.92;;
50759;SDS011;36733;48.442;-4.470;2023-07-09T16:42:39;10.88;;;1.70;;
50759;SDS011;36733;48.442;-4.470;2023-07-09T16:45:04;14.68;;;2.72;;
50759;SDS011;36733;48.442;-4.470;2023-07-09T16:47:30;11.68;;;2.13;;
50759;SDS011;36733;48.442;-4.470;2023-07-09T16:49:56;9.32;;;1.98;;
50759;SDS011;36733;48.442;-4.470;2023-07-09T16:52:22;10.85;;;2.35;;
50759;SDS011;36733;48.442;-4.470;2023-07-09T16:54:50;14.80;;;2.30;;
50759;SDS011;36733;48.442;-4.470;2023-07-09T16:57:22;13.38;;;2.40;;
50759;SDS011;36733;48.442;-4.470;2023-07-09T16:59:50;14.93;;;2.35;;
50759;SDS011;36733;48.442;-4.470;2023-07-09T17:04:53;11.57;;;2.50;;
50759;SDS011;36733;48.442;-4.470;2023-07-09T17:07:19;13.32;;;2.35;;
50759;SDS011;36733;48.442;-4.470;2023-07-09T17:09:44;13.13;;;2.22;;
50759;SDS011;36733;48.442;-4.470;2023-07-09T17:12:10;17.23;;;2.35;;
50759;SDS011;36733;48.442;-4.470;2023-07-09T17:14:37;13.90;;;2.33;;
50759;SDS011;36733;48.442;-4.470;2023-07-09T17:17:04;10.18;;;2.33;;
50759;SDS011;36733;48.442;-4.470;2023-07-09T17:19:30;11.23;;;1.85;;
50759;SDS011;36733;48.442;-4.470;2023-07-09T17:21:55;10.23;;;2.03;;
50759;SDS011;36733;48.442;-4.470;2023-07-09T17:26:48;15.73;;;2.40;;
50759;SDS011;36733;48.442;-4.470;2023-07-09T17:29:15;11.15;;;1.70;;
50759;SDS011;36733;48.442;-4.470;2023-07-09T17:31:42;9.73;;;2.40;;
50759;SDS011;36733;48.442;-4.470;2023-07-09T17:34:09;15.45;;;3.05;;
50759;SDS011;36733;48.442;-4.470;2023-07-09T17:36:34;14.93;;;2.47;;
50759;SDS011;36733;48.442;-4.470;2023-07-09T17:39:00;13.43;;;2.43;;
50759;SDS011;36733;48.442;-4.470;2023-07-09T17:41:25;14.80;;;3.30;;
50759;SDS011;36733;48.442;-4.470;2023-07-09T17:43:51;16.40;;;2.63;;
50759;SDS011;36733;48.442;-4.470;2023-07-09T17:46:17;13.32;;;2.53;;
50759;SDS011;36733;48.442;-4.470;2023-07-09T17:48:43;11.68;;;2.83;;
50759;SDS011;36733;48.442;-4.470;2023-07-09T17:51:08;13.47;;;2.10;;
50759;SDS011;36733;48.442;-4.470;2023-07-09T17:53:35;15.93;;;2.60;;
50759;SDS011;36733;48.442;-4.470;2023-07-09T17:56:10;18.88;;;2.78;;
50759;SDS011;36733;48.442;-4.470;2023-07-09T17:58:43;10.65;;;1.88;;
50759;SDS011;36733;48.442;-4.470;2023-07-09T18:01:09;7.43;;;2.10;;
50759;SDS011;36733;48.442;-4.470;2023-07-09T18:03:34;13.93;;;2.27;;
50759;SDS011;36733;48.442;-4.470;2023-07-09T18:06:00;14.20;;;2.25;;
50759;SDS011;36733;48.442;-4.470;2023-07-09T18:08:25;13.63;;;2.75;;
50759;SDS011;36733;48.442;-4.470;2023-07-09T18:10:51;10.40;;;2.43;;
50759;SDS011;36733;48.442;-4.470;2023-07-09T18:13:18;10.85;;;2.47;;
50759;SDS011;36733;48.442;-4.470;2023-07-09T18:15:45;12.05;;;2.05;;
50759;SDS011;36733;48.442;-4.470;2023-07-09T18:20:37;16.35;;;2.40;;
50759;SDS011;36733;48.442;-4.470;2023-07-09T18:23:03;10.48;;;2.53;;
50759;SDS011;36733;48.442;-4.470;2023-07-09T18:25:28;12.50;;;2.17;;
50759;SDS011;36733;48.442;-4.470;2023-07-09T18:27:58;11.90;;;1.88;;
50759;SDS011;36733;48.442;-4.470;2023-07-09T18:30:26;8.45;;;1.90;;
50759;SDS011;36733;48.442;-4.470;2023-07-09T18:33:01;14.43;;;2.40;;
50759;SDS011;36733;48.442;-4.470;2023-07-09T18:35:35;12.45;;;2.00;;
50759;SDS011;36733;48.442;-4.470;2023-07-09T18:38:05;10.63;;;2.97;;
50759;SDS011;36733;48.442;-4.470;2023-07-09T18:40:33;15.23;;;2.60;;
50759;SDS011;36733;48.442;-4.470;2023-07-09T18:43:18;17.25;;;2.70;;
50759;SDS011;36733;48.442;-4.470;2023-07-09T18:45:46;11.23;;;2.60;;
50759;SDS011;36733;48.442;-4.470;2023-07-09T18:48:16;12.38;;;2.85;;
50759;SDS011;36733;48.442;-4.470;2023-07-09T18:50:45;15.13;;;2.30;;
50759;SDS011;36733;48.442;-4.470;2023-07-09T18:53:12;12.93;;;2.28;;
50759;SDS011;36733;48.442;-4.470;2023-07-09T18:55:39;14.23;;;2.15;;
50759;SDS011;36733;48.442;-4.470;2023-07-09T18:58:13;11.30;;;2.17;;
50759;SDS011;36733;48.442;-4.470;2023-07-09T19:00:42;6.90;;;1.70;;
50759;SDS011;36733;48.442;-4.470;2023-07-09T19:03:09;12.38;;;2.10;;
50759;SDS011;36733;48.442;-4.470;2023-07-09T19:05:45;11.23;;;3.08;;
50759;SDS011;36733;48.442;-4.470;2023-07-09T19:08:27;14.35;;;2.55;;
50759;SDS011;36733;48.442;-4.470;2023-07-09T19:10:53;12.43;;;2.15;;
50759;SDS011;36733;48.442;-4.470;2023-07-09T19:13:19;16.25;;;2.67;;
50759;SDS011;36733;48.442;-4.470;2023-07-09T19:15:46;13.07;;;2.22;;
50759;SDS011;36733;48.442;-4.470;2023-07-09T19:18:19;15.13;;;2.65;;
50759;SDS011;36733;48.442;-4.470;2023-07-09T19:20:51;15.05;;;2.72;;
50759;SDS011;36733;48.442;-4.470;2023-07-09T19:23:17;11.10;;;2.47;;
50759;SDS011;36733;48.442;-4.470;2023-07-09T19:25:43;10.48;;;2.63;;
50759;SDS011;36733;48.442;-4.470;2023-07-09T19:28:10;14.75;;;2.30;;
50759;SDS011;36733;48.442;-4.470;2023-07-09T19:33:02;12.45;;;2.45;;
50759;SDS011;36733;48.442;-4.470;2023-07-09T19:35:28;15.55;;;2.20;;
50759;SDS011;36733;48.442;-4.470;2023-07-09T19:37:53;11.30;;;2.15;;
50759;SDS011;36733;48.442;-4.470;2023-07-09T19:40:26;10.60;;;1.90;;
50759;SDS011;36733;48.442;-4.470;2023-07-09T19:42:53;11.63;;;2.25;;
50759;SDS011;36733;48.442;-4.470;2023-07-09T19:45:20;13.73;;;2.10;;
50759;SDS011;36733;48.442;-4.470;2023-07-09T19:47:47;10.90;;;2.20;;
50759;SDS011;36733;48.442;-4.470;2023-07-09T19:50:16;11.27;;;2.13;;
50759;SDS011;36733;48.442;-4.470;2023-07-09T19:52:45;9.05;;;1.98;;
50759;SDS011;36733;48.442;-4.470;2023-07-09T19:55:21;11.23;;;2.20;;
50759;SDS011;36733;48.442;-4.470;2023-07-09T19:57:48;12.15;;;1.83;;
50759;SDS011;36733;48.442;-4.470;2023-07-09T20:02:40;11.48;;;2.13;;
50759;SDS011;36733;48.442;-4.470;2023-07-09T20:05:29;9.30;;;1.92;;
50759;SDS011;36733;48.442;-4.470;2023-07-09T20:10:26;15.70;;;2.58;;
50759;SDS011;36733;48.442;-4.470;2023-07-09T20:12:53;15.52;;;2.67;;
50759;SDS011;36733;48.442;-4.470;2023-07-09T20:15:21;10.23;;;2.85;;
50759;SDS011;36733;48.442;-4.470;2023-07-09T20:17:49;15.70;;;2.42;;
50759;SDS011;36733;48.442;-4.470;2023-07-09T20:20:16;13.35;;;2.20;;
50759;SDS011;36733;48.442;-4.470;2023-07-09T20:22:41;11.50;;;2.30;;
50759;SDS011;36733;48.442;-4.470;2023-07-09T20:25:28;14.98;;;2.80;;
50759;SDS011;36733;48.442;-4.470;2023-07-09T20:27:53;9.57;;;1.90;;
50759;SDS011;36733;48.442;-4.470;2023-07-09T20:30:19;14.97;;;2.00;;
50759;SDS011;36733;48.442;-4.470;2023-07-09T20:32:46;10.30;;;2.47;;
50759;SDS011;36733;48.442;-4.470;2023-07-09T20:35:16;9.70;;;1.88;;
50759;SDS011;36733;48.442;-4.470;2023-07-09T20:37:42;12.48;;;2.10;;
50759;SDS011;36733;48.442;-4.470;2023-07-09T20:40:10;8.13;;;1.50;;
50759;SDS011;36733;48.442;-4.470;2023-07-09T20:42:38;19.13;;;3.05;;
50759;SDS011;36733;48.442;-4.470;2023-07-09T20:45:08;12.05;;;2.10;;
50759;SDS011;36733;48.442;-4.470;2023-07-09T20:47:37;6.88;;;1.55;;
50759;SDS011;36733;48.442;-4.470;2023-07-09T20:50:07;11.97;;;2.10;;
50759;SDS011;36733;48.442;-4.470;2023-07-09T20:52:33;8.43;;;2.13;;
50759;SDS011;36733;48.442;-4.470;2023-07-09T20:54:59;8.90;;;1.90;;
50759;SDS011;36733;48.442;-4.470;2023-07-09T20:57:24;14.23;;;2.13;;
50759;SDS011;36733;48.442;-4.470;2023-07-09T20:59:50;15.00;;;2.08;;
50759;SDS011;36733;48.442;-4.470;2023-07-09T21:04:42;11.20;;;1.77;;
50759;SDS011;36733;48.442;-4.470;2023-07-09T21:07:08;7.97;;;2.27;;
50759;SDS011;36733;48.442;-4.470;2023-07-09T21:09:35;12.10;;;1.95;;
50759;SDS011;36733;48.442;-4.470;2023-07-09T21:12:00;16.00;;;2.37;;
50759;SDS011;36733;48.442;-4.470;2023-07-09T21:14:26;15.07;;;2.47;;
50759;SDS011;36733;48.442;-4.470;2023-07-09T21:16:55;11.77;;;1.97;;
50759;SDS011;36733;48.442;-4.470;2023-07-09T21:19:22;17.85;;;2.38;;
50759;SDS011;36733;48.442;-4.470;2023-07-09T21:21:51;10.50;;;2.33;;
50759;SDS011;36733;48.442;-4.470;2023-07-09T21:24:26;14.10;;;2.27;;
50759;SDS011;36733;48.442;-4.470;2023-07-09T21:27:01;11.05;;;1.77;;
50759;SDS011;36733;48.442;-4.470;2023-07-09T21:29:28;16.42;;;3.13;;
50759;SDS011;36733;48.442;-4.470;2023-07-09T21:31:58;14.48;;;2.60;;
50759;SDS011;36733;48.442;-4.470;2023-07-09T21:34:26;10.32;;;2.33;;
50759;SDS011;36733;48.442;-4.470;2023-07-09T21:36:54;16.75;;;2.75;;
50759;SDS011;36733;48.442;-4.470;2023-07-09T21:39:22;13.18;;;2.42;;
50759;SDS011;36733;48.442;-4.470;2023-07-09T21:41:49;13.60;;;3.10;;
50759;SDS011;36733;48.442;-4.470;2023-07-09T21:44:19;10.60;;;2.17;;
50759;SDS011;36733;48.442;-4.470;2023-07-09T21:46:49;6.28;;;1.58;;
50759;SDS011;36733;48.442;-4.470;2023-07-09T21:49:21;11.32;;;2.30;;
50759;SDS011;36733;48.442;-4.470;2023-07-09T21:51:48;10.73;;;1.88;;
50759;SDS011;36733;48.442;-4.470;2023-07-09T21:54:31;12.97;;;2.03;;
50759;SDS011;36733;48.442;-4.470;2023-07-09T21:57:01;10.23;;;2.28;;
50759;SDS011;36733;48.442;-4.470;2023-07-09T21:59:28;9.50;;;2.13;;
50759;SDS011;36733;48.442;-4.470;2023-07-09T22:01:55;8.70;;;1.52;;
50759;SDS011;36733;48.442;-4.470;2023-07-09T22:04:32;13.30;;;2.38;;
50759;SDS011;36733;48.442;-4.470;2023-07-09T22:06:59;8.05;;;1.27;;
50759;SDS011;36733;48.442;-4.470;2023-07-09T22:09:25;14.13;;;2.17;;
50759;SDS011;36733;48.442;-4.470;2023-07-09T22:11:52;9.70;;;1.70;;
50759;SDS011;36733;48.442;-4.470;2023-07-09T22:16:45;10.82;;;1.85;;
50759;SDS011;36733;48.442;-4.470;2023-07-09T22:19:11;12.48;;;2.30;;
50759;SDS011;36733;48.442;-4.470;2023-07-09T22:21:37;16.67;;;2.55;;
50759;SDS011;36733;48.442;-4.470;2023-07-09T22:24:03;8.30;;;1.77;;
50759;SDS011;36733;48.442;-4.470;2023-07-09T22:26:30;12.05;;;2.38;;
50759;SDS011;36733;48.442;-4.470;2023-07-09T22:28:56;12.60;;;1.90;;
50759;SDS011;36733;48.442;-4.470;2023-07-09T22:31:23;10.32;;;2.00;;
50759;SDS011;36733;48.442;-4.470;2023-07-09T22:33:49;10.82;;;1.90;;
50759;SDS011;36733;48.442;-4.470;2023-07-09T22:36:15;8.03;;;1.67;;
50759;SDS011;36733;48.442;-4.470;2023-07-09T22:38:40;9.67;;;1.63;;
50759;SDS011;36733;48.442;-4.470;2023-07-09T22:41:05;7.33;;;1.60;;
50759;SDS011;36733;48.442;-4.470;2023-07-09T22:43:31;15.33;;;2.90;;
50759;SDS011;36733;48.442;-4.470;2023-07-09T22:45:57;8.63;;;2.10;;
50759;SDS011;36733;48.442;-4.470;2023-07-09T22:48:23;15.95;;;2.25;;
50759;SDS011;36733;48.442;-4.470;2023-07-09T22:50:49;11.80;;;2.20;;
50759;SDS011;36733;48.442;-4.470;2023-07-09T22:53:18;14.27;;;2.35;;
50759;SDS011;36733;48.442;-4.470;2023-07-09T22:55:46;11.60;;;2.88;;
50759;SDS011;36733;48.442;-4.470;2023-07-09T22:58:14;7.75;;;2.05;;
50759;SDS011;36733;48.442;-4.470;2023-07-09T23:00:44;13.93;;;2.15;;
50759;SDS011;36733;48.442;-4.470;2023-07-09T23:03:22;4.97;;;1.42;;
50759;SDS011;36733;48.442;-4.470;2023-07-09T23:05:50;8.65;;;1.63;;
50759;SDS011;36733;48.442;-4.470;2023-07-09T23:08:17;11.70;;;2.00;;
50759;SDS011;36733;48.442;-4.470;2023-07-09T23:10:43;12.23;;;2.22;;
50759;SDS011;36733;48.442;-4.470;2023-07-09T23:13:09;15.20;;;2.43;;
50759;SDS011;36733;48.442;-4.470;2023-07-09T23:15:35;11.93;;;2.20;;
50759;SDS011;36733;48.442;-4.470;2023-07-09T23:18:04;13.10;;;2.50;;
50759;SDS011;36733;48.442;-4.470;2023-07-09T23:20:34;12.00;;;1.80;;
50759;SDS011;36733;48.442;-4.470;2023-07-09T23:22:59;9.00;;;1.67;;
50759;SDS011;36733;48.442;-4.470;2023-07-09T23:25:26;10.65;;;2.10;;
50759;SDS011;36733;48.442;-4.470;2023-07-09T23:27:52;9.77;;;2.33;;
50759;SDS011;36733;48.442;-4.470;2023-07-09T23:30:20;8.55;;;2.50;;
50759;SDS011;36733;48.442;-4.470;2023-07-09T23:32:53;8.98;;;1.92;;
50759;SDS011;36733;48.442;-4.470;2023-07-09T23:35:23;14.18;;;2.30;;
50759;SDS011;36733;48.442;-4.470;2023-07-09T23:37:49;14.50;;;2.47;;
50759;SDS011;36733;48.442;-4.470;2023-07-09T23:40:15;8.53;;;1.73;;
50759;SDS011;36733;48.442;-4.470;2023-07-09T23:42:45;9.82;;;1.95;;
50759;SDS011;36733;48.442;-4.470;2023-07-09T23:45:17;9.88;;;1.83;;
50759;SDS011;36733;48.442;-4.470;2023-07-09T23:47:45;10.70;;;2.15;;
50759;SDS011;36733;48.442;-4.470;2023-07-09T23:50:16;13.90;;;1.98;;
50759;SDS011;36733;48.442;-4.470;2023-07-09T23:52:47;15.57;;;2.20;;
50759;SDS011;36733;48.442;-4.470;2023-07-09T23:55:14;8.07;;;1.73;;
50759;SDS011;36733;48.442;-4.470;2023-07-09T23:57:40;10.35;;;2.30;;
